Time;durP1;ratioP1;P1;durP2;ratioP2;P2;SDS_P1;SDS_P2;PMS_P1;PMS_P2;Temp;Humidity;BMP_temperature;BMP_pressure;BME280_temperature;BME280_humidity;BME280_pressure;Samples;Min_cycle;Max_cycle;Signal;HPM_P1;HPM_P2
2023/08/29 00:01:23;;;;;;;1.40;0.60;;;16.10;1.00;;;;;;5113625;28;20443;-62
2023/08/29 00:03:51;;;;;;;0.70;0.50;;;16.10;1.00;;;;;;5141159;27;20485;-62
2023/08/29 00:06:18;;;;;;;0.98;0.60;;;16.00;1.00;;;;;;5153825;27;20527;-62
2023/08/29 00:08:45;;;;;;;0.80;0.60;;;16.10;1.00;;;;;;5129802;27;20852;-62
2023/08/29 00:11:12;;;;;;;0.80;0.50;;;16.10;1.00;;;;;;5133605;27;20410;-62
2023/08/29 00:13:40;;;;;;;0.70;0.50;;;16.10;1.00;;;;;;5113655;28;20427;-62
2023/08/29 00:16:07;;;;;;;0.90;0.50;;;15.90;1.00;;;;;;5114820;27;20428;-62
2023/08/29 00:18:34;;;;;;;0.80;0.50;;;15.90;1.00;;;;;;5115988;27;20428;-62
2023/08/29 00:21:01;;;;;;;0.60;0.50;;;16.00;1.00;;;;;;5114506;28;20447;-62
2023/08/29 00:23:28;;;;;;;0.90;0.50;;;15.90;1.00;;;;;;5114675;28;20431;-62
2023/08/29 00:25:55;;;;;;;0.90;0.60;;;15.90;1.00;;;;;;5117092;28;20736;-62
2023/08/29 00:28:23;;;;;;;0.80;0.60;;;16.00;1.00;;;;;;5136364;27;20410;-61
2023/08/29 00:30:52;;;;;;;0.80;0.50;;;16.10;1.00;;;;;;5129621;27;20431;-59
2023/08/29 00:33:19;;;;;;;1.10;0.60;;;16.20;1.00;;;;;;5136796;27;20410;-62
2023/08/29 00:35:47;;;;;;;1.50;0.60;;;16.10;1.00;;;;;;5130867;27;20426;-62
2023/08/29 00:38:15;;;;;;;1.20;0.60;;;16.10;1.00;;;;;;5135480;27;20411;-62
2023/08/29 00:40:42;;;;;;;0.90;0.57;;;16.10;1.00;;;;;;5129533;28;20853;-62
2023/08/29 00:43:09;;;;;;;1.10;0.50;;;15.90;1.00;;;;;;5134753;28;20425;-62
2023/08/29 00:45:38;;;;;;;0.70;0.50;;;15.90;1.00;;;;;;5129501;28;20426;-62
2023/08/29 00:48:08;;;;;;;1.20;0.50;;;16.00;1.00;;;;;;5135561;28;20759;-63
2023/08/29 00:50:36;;;;;;;0.70;0.50;;;16.00;1.00;;;;;;5130507;28;20479;-63
2023/08/29 00:53:06;;;;;;;1.20;0.60;;;16.00;1.00;;;;;;5135653;28;20411;-62
2023/08/29 00:55:35;;;;;;;0.70;0.50;;;16.00;1.00;;;;;;5125130;28;20432;-61
2023/08/29 00:58:03;;;;;;;0.80;0.50;;;16.00;1.00;;;;;;5115507;28;20439;-62
2023/08/29 01:00:32;;;;;;;1.30;0.60;;;15.80;1.00;;;;;;5125151;28;20533;-63
2023/08/29 01:02:59;;;;;;;0.73;0.50;;;15.90;1.00;;;;;;5135799;28;20732;-62
2023/08/29 01:05:29;;;;;;;0.70;0.50;;;16.00;1.00;;;;;;5121211;28;20420;-62
2023/08/29 01:07:58;;;;;;;1.00;0.60;;;16.00;1.00;;;;;;5115522;28;20452;-62
2023/08/29 01:10:35;;;;;;;0.90;0.60;;;16.00;1.00;;;;;;5128959;28;20938;-63
2023/08/29 01:13:10;;;;;;;0.80;0.50;;;16.00;1.00;;;;;;5133818;28;20431;-62
2023/08/29 01:15:40;;;;;;;0.70;0.52;;;15.80;1.00;;;;;;5113437;28;20435;-61
2023/08/29 01:18:09;;;;;;;0.90;0.60;;;15.80;1.00;;;;;;5112140;28;20873;-62
2023/08/29 01:20:39;;;;;;;0.80;0.60;;;15.90;1.00;;;;;;5132350;28;20430;-61
2023/08/29 01:23:13;;;;;;;1.50;0.60;;;16.00;1.00;;;;;;5134353;27;20426;-63
2023/08/29 01:25:47;;;;;;;0.90;0.60;;;16.00;1.00;;;;;;5118297;28;20420;-62
2023/08/29 01:28:17;;;;;;;1.60;0.50;;;16.10;1.00;;;;;;5119712;27;20428;-62
2023/08/29 01:30:46;;;;;;;0.93;0.60;;;16.10;1.00;;;;;;5138066;27;20418;-62
2023/08/29 01:33:13;;;;;;;0.80;0.60;;;16.10;1.00;;;;;;5129167;27;20460;-62
2023/08/29 01:35:46;;;;;;;0.93;0.60;;;16.10;1.00;;;;;;5117452;28;20412;-62
2023/08/29 01:38:15;;;;;;;1.00;0.63;;;16.20;1.00;;;;;;5120811;27;20430;-63
2023/08/29 01:40:42;;;;;;;0.80;0.60;;;16.00;1.00;;;;;;5137361;27;20430;-63
2023/08/29 01:43:09;;;;;;;0.70;0.60;;;15.80;1.00;;;;;;5127318;27;20428;-62
2023/08/29 01:45:37;;;;;;;0.88;0.60;;;15.80;1.00;;;;;;5117891;28;20424;-62
2023/08/29 01:48:05;;;;;;;1.20;0.60;;;15.80;1.00;;;;;;5124309;27;20426;-62
2023/08/29 01:50:34;;;;;;;0.90;0.60;;;15.90;1.00;;;;;;5138828;27;20721;-63
2023/08/29 01:53:01;;;;;;;0.90;0.57;;;15.90;1.00;;;;;;5127800;27;20603;-63
2023/08/29 01:55:29;;;;;;;1.10;0.60;;;15.90;1.00;;;;;;5116699;28;20433;-63
2023/08/29 01:57:58;;;;;;;1.20;0.70;;;15.80;1.00;;;;;;5119993;27;20437;-62
2023/08/29 02:00:26;;;;;;;1.10;0.60;;;15.70;1.00;;;;;;5117779;28;20424;-62
2023/08/29 02:02:54;;;;;;;1.30;0.70;;;15.70;1.00;;;;;;5127284;27;20434;-62
2023/08/29 02:05:21;;;;;;;0.90;0.70;;;15.60;1.00;;;;;;5137832;27;20714;-63
2023/08/29 02:07:49;;;;;;;0.95;0.70;;;15.70;1.00;;;;;;5123760;27;20428;-62
2023/08/29 02:10:16;;;;;;;2.50;0.70;;;15.50;1.00;;;;;;5118425;28;20416;-63
2023/08/29 02:12:44;;;;;;;1.48;0.60;;;15.40;1.00;;;;;;5131834;27;20438;-63
2023/08/29 02:15:11;;;;;;;1.00;0.60;;;15.60;1.00;;;;;;5138380;27;20426;-63
2023/08/29 02:17:38;;;;;;;0.90;0.70;;;15.70;1.00;;;;;;5132406;27;20426;-62
2023/08/29 02:20:08;;;;;;;0.80;0.60;;;15.90;1.00;;;;;;5138361;27;20432;-62
2023/08/29 02:22:36;;;;;;;0.90;0.60;;;15.90;1.00;;;;;;5117872;27;20435;-62
2023/08/29 02:25:04;;;;;;;1.13;0.80;;;16.00;1.00;;;;;;5117800;27;20857;-63
2023/08/29 02:27:32;;;;;;;1.33;0.60;;;15.90;1.00;;;;;;5134953;27;20865;-62
2023/08/29 02:29:59;;;;;;;0.80;0.60;;;15.90;1.00;;;;;;5137652;27;20429;-62
2023/08/29 02:32:26;;;;;;;0.80;0.60;;;15.80;1.00;;;;;;5118112;27;20854;-62
2023/08/29 02:34:53;;;;;;;1.60;0.63;;;15.90;1.00;;;;;;5118733;27;20424;-62
2023/08/29 02:37:21;;;;;;;0.90;0.60;;;15.90;1.00;;;;;;5118627;27;20428;-62
2023/08/29 02:39:48;;;;;;;0.70;0.50;;;15.90;1.00;;;;;;5119342;27;20439;-62
2023/08/29 02:42:15;;;;;;;0.80;0.60;;;16.00;1.00;;;;;;5118414;27;20431;-62
2023/08/29 02:44:43;;;;;;;1.40;0.60;;;15.90;1.00;;;;;;5117511;27;20424;-62
2023/08/29 02:47:10;;;;;;;0.90;0.60;;;15.90;1.00;;;;;;5137748;27;20418;-63
2023/08/29 02:49:37;;;;;;;0.90;0.70;;;16.00;1.00;;;;;;5136528;27;20733;-62
2023/08/29 02:52:05;;;;;;;1.00;0.70;;;16.10;1.00;;;;;;5116597;28;20846;-63
2023/08/29 02:54:33;;;;;;;1.40;0.60;;;16.10;1.00;;;;;;5117265;27;20583;-63
2023/08/29 02:57:00;;;;;;;1.10;0.80;;;16.10;1.00;;;;;;5116384;28;20858;-62
2023/08/29 02:59:28;;;;;;;1.50;0.60;;;16.00;1.00;;;;;;5119448;27;20428;-65
2023/08/29 03:01:54;;;;;;;0.95;0.73;;;16.00;1.00;;;;;;5115952;28;20416;-62
2023/08/29 03:04:22;;;;;;;1.02;0.70;;;15.90;1.00;;;;;;5117892;27;20434;-63
2023/08/29 03:06:49;;;;;;;0.90;0.60;;;15.90;1.00;;;;;;5117075;28;20424;-64
2023/08/29 03:09:16;;;;;;;1.30;0.60;;;15.90;1.00;;;;;;5117643;27;20431;-63
2023/08/29 03:11:44;;;;;;;0.90;0.70;;;16.00;1.00;;;;;;5115572;28;20515;-63
2023/08/29 03:14:11;;;;;;;2.60;0.70;;;15.90;1.00;;;;;;5119410;27;20418;-63
2023/08/29 03:16:38;;;;;;;1.40;0.70;;;15.80;1.00;;;;;;5135867;27;20586;-62
2023/08/29 03:19:05;;;;;;;0.80;0.70;;;15.80;1.00;;;;;;5133866;27;20456;-63
2023/08/29 03:21:32;;;;;;;1.40;0.70;;;15.80;1.00;;;;;;5135936;27;20428;-63
2023/08/29 03:23:59;;;;;;;1.10;0.70;;;15.80;1.00;;;;;;5130559;27;20538;-63
2023/08/29 03:26:26;;;;;;;0.90;0.60;;;15.90;1.00;;;;;;5135643;27;20417;-63
2023/08/29 03:28:55;;;;;;;0.80;0.60;;;16.00;1.00;;;;;;5129759;27;20422;-63
2023/08/29 03:31:22;;;;;;;0.90;0.70;;;16.00;1.00;;;;;;5137211;27;20718;-64
2023/08/29 03:33:49;;;;;;;0.70;0.60;;;15.90;1.00;;;;;;5132986;27;20554;-64
2023/08/29 03:36:16;;;;;;;1.33;0.80;;;16.10;1.00;;;;;;5136189;27;20791;-63
2023/08/29 03:38:44;;;;;;;1.10;0.60;;;16.00;1.00;;;;;;5121510;27;20439;-63
2023/08/29 03:41:11;;;;;;;0.90;0.70;;;16.10;1.00;;;;;;5114890;28;20902;-63
2023/08/29 03:43:38;;;;;;;1.30;0.70;;;16.10;1.00;;;;;;5124006;27;20426;-62
2023/08/29 03:46:08;;;;;;;1.10;0.80;;;16.10;1.00;;;;;;5136146;27;20829;-64
2023/08/29 03:48:36;;;;;;;1.00;0.80;;;16.10;1.00;;;;;;5125991;27;20424;-63
2023/08/29 03:51:06;;;;;;;1.80;0.80;;;16.10;1.00;;;;;;5116588;28;20429;-63
2023/08/29 03:53:33;;;;;;;1.65;0.70;;;16.10;1.00;;;;;;5127129;27;20841;-63
2023/08/29 03:56:02;;;;;;;1.00;0.80;;;16.00;1.00;;;;;;5136840;27;20425;-63
2023/08/29 03:58:29;;;;;;;1.35;0.82;;;16.00;1.00;;;;;;5121658;27;20455;-63
2023/08/29 04:00:57;;;;;;;1.80;0.80;;;15.90;1.00;;;;;;5116063;28;20467;-63
2023/08/29 04:03:26;;;;;;;1.20;0.90;;;15.90;1.00;;;;;;5128593;27;20449;-63
2023/08/29 04:05:53;;;;;;;1.00;0.80;;;16.00;1.00;;;;;;5136600;27;20422;-63
2023/08/29 04:08:20;;;;;;;1.30;0.90;;;15.90;1.00;;;;;;5131029;27;20418;-63
2023/08/29 04:10:47;;;;;;;1.40;0.80;;;16.00;1.00;;;;;;5135495;27;20711;-62
2023/08/29 04:13:14;;;;;;;1.20;0.90;;;16.10;1.00;;;;;;5119198;27;20428;-62
2023/08/29 04:15:41;;;;;;;1.27;1.00;;;16.20;1.00;;;;;;5115442;28;20420;-62
2023/08/29 04:18:09;;;;;;;1.20;1.00;;;16.20;1.00;;;;;;5133599;27;20500;-63
2023/08/29 04:20:37;;;;;;;2.70;1.02;;;16.00;1.00;;;;;;5131036;27;20428;-63
2023/08/29 04:23:07;;;;;;;1.63;1.00;;;16.00;1.00;;;;;;5114412;28;20424;-62
2023/08/29 04:25:35;;;;;;;2.40;1.10;;;15.90;1.00;;;;;;5117275;27;20786;-63
2023/08/29 04:28:03;;;;;;;1.10;0.90;;;15.70;1.00;;;;;;5113780;28;20416;-63
2023/08/29 04:30:30;;;;;;;1.10;0.90;;;15.70;1.00;;;;;;5112046;28;20448;-62
2023/08/29 04:32:59;;;;;;;1.20;1.00;;;15.80;1.00;;;;;;5125178;27;20789;-63
2023/08/29 04:35:26;;;;;;;1.58;0.95;;;15.80;1.00;;;;;;5134446;27;20425;-62
2023/08/29 04:37:55;;;;;;;1.60;1.00;;;15.70;1.00;;;;;;5113044;28;20404;-62
2023/08/29 04:40:22;;;;;;;2.58;1.00;;;15.90;1.00;;;;;;5111293;28;20468;-58
2023/08/29 04:42:52;;;;;;;1.20;0.90;;;15.90;1.00;;;;;;5110776;28;20420;-60
2023/08/29 04:45:19;;;;;;;1.60;1.10;;;15.80;1.00;;;;;;5110107;28;20489;-61
2023/08/29 04:47:46;;;;;;;1.40;1.00;;;15.80;1.00;;;;;;5110970;28;20521;-61
2023/08/29 04:50:14;;;;;;;1.55;0.93;;;15.80;1.00;;;;;;5111688;28;20865;-59
2023/08/29 04:52:41;;;;;;;2.20;1.13;;;15.70;1.00;;;;;;5113177;28;20443;-60
2023/08/29 04:55:10;;;;;;;1.80;1.10;;;15.60;1.00;;;;;;5113771;28;20423;-61
2023/08/29 04:57:37;;;;;;;1.50;1.10;;;15.60;1.00;;;;;;5115165;28;20423;-61
2023/08/29 05:00:09;;;;;;;1.38;1.00;;;15.60;1.00;;;;;;5117907;28;20439;-61
2023/08/29 05:02:36;;;;;;;1.80;1.10;;;15.80;1.00;;;;;;5116205;28;20519;-60
2023/08/29 05:05:03;;;;;;;1.60;1.00;;;15.80;1.00;;;;;;5117326;28;20858;-61
2023/08/29 05:07:30;;;;;;;1.90;1.20;;;15.80;1.00;;;;;;5115255;28;20421;-60
2023/08/29 05:09:57;;;;;;;2.97;1.30;;;15.80;1.00;;;;;;5116003;28;20767;-60
2023/08/29 05:12:26;;;;;;;1.60;1.10;;;15.70;1.00;;;;;;5115231;28;20424;-60
2023/08/29 05:14:54;;;;;;;1.80;1.30;;;15.60;3.80;;;;;;5116249;28;20426;-60
2023/08/29 05:17:21;;;;;;;1.80;1.20;;;15.60;32.90;;;;;;5115211;28;20420;-60
2023/08/29 05:19:49;;;;;;;2.70;1.30;;;15.60;76.10;;;;;;5116602;28;20408;-60
2023/08/29 05:22:16;;;;;;;2.20;1.48;;;15.60;78.80;;;;;;5116516;28;20431;-60
2023/08/29 05:24:43;;;;;;;3.50;1.52;;;15.60;80.70;;;;;;5120703;27;20414;-60
2023/08/29 05:27:10;;;;;;;1.60;1.20;;;15.60;97.10;;;;;;5135856;27;20425;-60
2023/08/29 05:29:39;;;;;;;1.80;1.33;;;15.60;99.70;;;;;;5137506;27;20716;-60
2023/08/29 05:32:07;;;;;;;2.67;1.43;;;15.60;99.90;;;;;;5136044;27;20425;-60
2023/08/29 05:34:35;;;;;;;2.40;1.50;;;15.60;94.60;;;;;;5116361;28;20866;-60
2023/08/29 05:37:03;;;;;;;3.45;1.40;;;15.50;97.20;;;;;;5115596;27;20428;-60
2023/08/29 05:39:30;;;;;;;2.85;1.60;;;15.50;99.90;;;;;;5136061;27;20426;-60
2023/08/29 05:41:57;;;;;;;1.90;1.30;;;15.30;99.90;;;;;;5131550;27;20436;-60
2023/08/29 05:44:24;;;;;;;1.92;1.48;;;15.50;99.90;;;;;;5117142;28;20420;-59
2023/08/29 05:46:53;;;;;;;2.20;1.33;;;15.50;99.90;;;;;;5118481;27;20481;-60
2023/08/29 05:49:20;;;;;;;2.70;1.40;;;15.60;99.90;;;;;;5137691;27;20418;-60
2023/08/29 05:51:47;;;;;;;2.80;1.40;;;15.60;99.90;;;;;;5127787;27;20455;-60
2023/08/29 05:54:14;;;;;;;1.95;1.30;;;15.60;99.90;;;;;;5128698;27;20442;-60
2023/08/29 05:56:41;;;;;;;1.67;1.20;;;15.60;99.90;;;;;;5128454;27;20842;-60
2023/08/29 05:59:08;;;;;;;1.67;1.20;;;15.60;99.90;;;;;;5133406;27;20408;-60
2023/08/29 06:01:36;;;;;;;3.17;1.30;;;15.60;99.90;;;;;;5141566;27;20430;-61
2023/08/29 06:04:05;;;;;;;2.65;1.42;;;15.60;99.90;;;;;;5139489;27;20460;-60
2023/08/29 06:06:32;;;;;;;3.67;1.50;;;15.60;99.90;;;;;;5136787;27;20426;-60
2023/08/29 06:09:00;;;;;;;3.00;1.40;;;15.70;99.90;;;;;;5139732;27;20466;-58
2023/08/29 06:11:28;;;;;;;2.30;1.20;;;15.70;99.90;;;;;;5120329;27;20505;-60
2023/08/29 06:13:55;;;;;;;2.20;1.30;;;15.80;99.90;;;;;;5131080;27;20407;-61
2023/08/29 06:16:22;;;;;;;1.90;1.20;;;15.90;99.90;;;;;;5126109;27;20426;-60
2023/08/29 06:18:49;;;;;;;1.75;1.25;;;16.00;95.70;;;;;;5135954;27;20426;-60
2023/08/29 06:21:18;;;;;;;2.10;1.20;;;16.10;79.90;;;;;;5132195;27;20442;-61
2023/08/29 06:23:45;;;;;;;2.30;1.20;;;16.10;55.50;;;;;;5134753;27;20722;-61
2023/08/29 06:26:12;;;;;;;2.45;1.20;;;16.10;49.10;;;;;;5126152;27;20443;-60
2023/08/29 06:28:39;;;;;;;1.60;1.30;;;16.20;48.70;;;;;;5133879;27;20423;-61
2023/08/29 06:31:07;;;;;;;2.00;1.00;;;16.10;54.70;;;;;;5116684;27;20439;-60
2023/08/29 06:33:34;;;;;;;2.40;1.30;;;16.10;90.30;;;;;;5111959;28;20794;-61
2023/08/29 06:36:01;;;;;;;1.67;1.20;;;16.10;67.60;;;;;;5125314;27;20437;-61
2023/08/29 06:38:31;;;;;;;2.30;1.40;;;15.90;64.70;;;;;;5133760;27;20476;-61
2023/08/29 06:40:59;;;;;;;1.58;1.10;;;15.70;99.90;;;;;;5116407;27;20681;-62
2023/08/29 06:43:26;;;;;;;1.50;1.20;;;15.70;99.90;;;;;;5116044;27;20681;-62
2023/08/29 06:45:53;;;;;;;2.40;1.40;;;15.80;99.90;;;;;;5112623;27;20420;-61
2023/08/29 06:48:20;;;;;;;4.30;1.50;;;16.00;98.00;;;;;;5128478;27;20756;-62
2023/08/29 06:50:47;;;;;;;3.17;1.30;;;16.10;75.50;;;;;;5126245;27;20427;-62
2023/08/29 06:53:14;;;;;;;1.83;1.30;;;16.00;85.10;;;;;;5132391;27;20410;-63
2023/08/29 06:55:43;;;;;;;2.30;1.10;;;15.70;99.90;;;;;;5113535;27;20439;-63
2023/08/29 06:58:10;;;;;;;1.60;1.17;;;15.70;99.90;;;;;;5112378;27;20832;-62
2023/08/29 07:00:37;;;;;;;1.90;1.27;;;15.90;99.90;;;;;;5143422;27;20742;-62
2023/08/29 07:03:05;;;;;;;2.20;1.10;;;15.90;99.90;;;;;;5143507;27;20428;-62
2023/08/29 07:05:32;;;;;;;1.60;1.10;;;16.10;99.90;;;;;;5131366;27;20430;-61
2023/08/29 07:07:59;;;;;;;2.20;1.20;;;16.20;90.50;;;;;;5132477;27;20920;-62
2023/08/29 07:10:26;;;;;;;2.10;1.23;;;16.20;83.50;;;;;;5134801;27;20433;-62
2023/08/29 07:12:55;;;;;;;1.58;1.20;;;16.10;86.80;;;;;;5129362;27;20915;-62
2023/08/29 07:15:22;;;;;;;3.72;1.30;;;16.10;98.50;;;;;;5133245;27;20521;-63
2023/08/29 07:17:49;;;;;;;2.20;1.50;;;16.00;99.90;;;;;;5127190;27;20452;-63
2023/08/29 07:20:16;;;;;;;1.80;1.30;;;15.90;99.90;;;;;;5124626;27;20415;-63
2023/08/29 07:22:44;;;;;;;1.45;1.10;;;15.80;99.90;;;;;;5117332;27;20428;-63
2023/08/29 07:25:12;;;;;;;1.50;1.27;;;15.90;99.90;;;;;;5127337;27;20809;-63
2023/08/29 07:27:39;;;;;;;2.10;1.20;;;16.20;99.90;;;;;;5114815;27;20444;-62
2023/08/29 07:30:14;;;;;;;1.70;1.05;;;16.20;99.90;;;;;;5108817;28;20423;-62
2023/08/29 07:32:41;;;;;;;1.85;1.10;;;16.30;99.90;;;;;;5112453;27;20878;-63
2023/08/29 07:35:09;;;;;;;2.50;1.60;;;16.40;99.90;;;;;;5109025;27;20415;-62
2023/08/29 07:37:36;;;;;;;1.70;1.40;;;16.30;99.90;;;;;;5125975;27;20431;-62
2023/08/29 07:40:04;;;;;;;2.20;1.20;;;16.10;99.90;;;;;;5126675;27;20426;-62
2023/08/29 07:42:32;;;;;;;2.60;1.60;;;16.20;99.90;;;;;;5126751;27;20433;-61
2023/08/29 07:44:59;;;;;;;11.23;8.00;;;16.10;99.90;;;;;;5132396;27;20433;-60
2023/08/29 07:47:27;;;;;;;3.10;1.38;;;16.10;99.90;;;;;;5126866;27;20419;-60
2023/08/29 07:49:55;;;;;;;1.60;1.40;;;15.90;99.90;;;;;;5133929;27;20425;-60
2023/08/29 07:52:22;;;;;;;2.30;1.30;;;15.90;99.90;;;;;;5118703;27;20424;-62
2023/08/29 07:54:49;;;;;;;2.15;1.30;;;15.90;99.90;;;;;;5137507;27;20790;-62
2023/08/29 07:57:16;;;;;;;2.20;1.30;;;15.80;99.90;;;;;;5114760;27;20454;-62
2023/08/29 07:59:43;;;;;;;2.80;1.40;;;15.70;99.90;;;;;;5135511;27;20439;-60
2023/08/29 08:02:10;;;;;;;1.70;1.40;;;15.80;99.90;;;;;;5116563;27;20853;-60
2023/08/29 08:04:39;;;;;;;2.20;1.30;;;15.80;99.90;;;;;;5122407;27;20426;-60
2023/08/29 08:07:06;;;;;;;1.70;1.10;;;15.90;99.90;;;;;;5126237;27;20440;-60
2023/08/29 08:09:33;;;;;;;2.63;1.27;;;16.00;99.90;;;;;;5126988;27;20511;-60
2023/08/29 08:12:02;;;;;;;1.83;1.30;;;16.10;99.90;;;;;;5127093;27;20427;-60
2023/08/29 08:14:29;;;;;;;1.80;1.30;;;16.10;99.90;;;;;;5110298;28;20928;-60
2023/08/29 08:16:56;;;;;;;1.98;1.67;;;16.00;99.90;;;;;;5127597;27;20444;-62
2023/08/29 08:19:24;;;;;;;1.95;1.50;;;15.90;99.90;;;;;;5152756;27;20424;-61
2023/08/29 08:21:52;;;;;;;1.60;1.50;;;15.80;99.90;;;;;;5131404;27;21335;-61
2023/08/29 08:24:19;;;;;;;1.90;1.38;;;15.80;99.90;;;;;;5134869;27;20431;-61
2023/08/29 08:26:47;;;;;;;2.38;1.30;;;15.80;99.90;;;;;;5125382;27;20465;-61
2023/08/29 08:29:14;;;;;;;2.00;1.50;;;16.10;99.90;;;;;;5143650;27;20421;-62
2023/08/29 08:31:41;;;;;;;1.80;1.55;;;16.20;99.90;;;;;;5121848;27;20427;-61
2023/08/29 08:34:10;;;;;;;1.75;1.40;;;15.90;99.90;;;;;;5131225;27;20884;-61
2023/08/29 08:36:38;;;;;;;1.60;1.10;;;16.10;99.90;;;;;;5112511;27;20480;-62
2023/08/29 08:39:06;;;;;;;2.05;1.20;;;16.40;99.90;;;;;;5111624;28;20435;-61
2023/08/29 08:41:33;;;;;;;1.50;1.30;;;16.30;99.90;;;;;;5109545;28;20468;-61
2023/08/29 08:44:03;;;;;;;3.42;1.77;;;16.50;99.90;;;;;;5110446;28;20412;-61
2023/08/29 08:46:31;;;;;;;2.50;1.98;;;16.40;99.90;;;;;;5123863;28;20537;-61
2023/08/29 08:48:59;;;;;;;2.40;1.80;;;16.40;99.90;;;;;;5130052;28;20422;-61
2023/08/29 08:51:29;;;;;;;2.78;2.45;;;16.10;99.90;;;;;;5125549;28;20833;-59
2023/08/29 08:53:57;;;;;;;2.95;1.83;;;16.00;99.90;;;;;;5130908;28;20513;-59
2023/08/29 08:56:25;;;;;;;1.80;1.50;;;16.10;99.90;;;;;;5126022;28;20425;-59
2023/08/29 08:58:53;;;;;;;2.30;1.85;;;16.40;99.90;;;;;;5128026;28;20428;-60
2023/08/29 09:01:20;;;;;;;1.70;1.60;;;16.50;99.90;;;;;;5108527;28;20532;-60
2023/08/29 09:03:47;;;;;;;2.10;1.63;;;16.60;99.90;;;;;;5111409;28;20451;-60
2023/08/29 09:06:15;;;;;;;1.90;1.70;;;16.80;99.90;;;;;;5109928;28;20628;-60
2023/08/29 09:08:42;;;;;;;2.50;2.00;;;16.80;99.90;;;;;;5111186;28;20888;-60
2023/08/29 09:11:10;;;;;;;4.70;1.40;;;16.80;99.90;;;;;;5110024;28;20862;-60
2023/08/29 09:13:46;;;;;;;2.90;1.97;;;17.10;99.90;;;;;;5109105;28;20518;-61
2023/08/29 09:16:14;;;;;;;1.67;1.50;;;17.10;99.90;;;;;;5132301;28;20458;-61
2023/08/29 09:18:44;;;;;;;3.38;1.60;;;17.00;99.90;;;;;;5124357;28;20430;-61
2023/08/29 09:21:18;;;;;;;2.70;1.50;;;16.90;99.90;;;;;;5132990;28;20427;-61
2023/08/29 09:23:45;;;;;;;2.40;1.70;;;16.60;99.90;;;;;;5125435;28;20430;-60
2023/08/29 09:26:13;;;;;;;2.72;1.70;;;16.50;99.90;;;;;;5129482;28;20430;-60
2023/08/29 09:28:41;;;;;;;1.90;1.60;;;16.60;99.90;;;;;;5120527;28;20656;-60
2023/08/29 09:31:10;;;;;;;2.15;1.30;;;16.50;99.90;;;;;;5110159;28;20438;-59
2023/08/29 09:33:39;;;;;;;1.92;1.38;;;16.50;99.90;;;;;;5122617;28;20431;-62
2023/08/29 09:36:06;;;;;;;2.00;1.50;;;16.50;99.90;;;;;;5111321;28;20423;-59
2023/08/29 09:38:34;;;;;;;1.60;1.20;;;16.40;99.90;;;;;;5127914;28;20419;-60
2023/08/29 09:41:02;;;;;;;2.63;1.63;;;16.40;99.90;;;;;;5128629;28;20810;-60
2023/08/29 09:43:30;;;;;;;2.80;1.90;;;16.40;99.90;;;;;;5129936;27;20418;-60
2023/08/29 09:45:59;;;;;;;3.28;1.90;;;16.40;99.90;;;;;;5136236;27;20498;-60
2023/08/29 09:48:27;;;;;;;2.20;1.40;;;16.60;99.90;;;;;;5136103;27;20510;-60
2023/08/29 09:50:57;;;;;;;1.92;1.50;;;16.70;99.90;;;;;;5116971;27;20416;-60
2023/08/29 09:53:24;;;;;;;1.80;1.52;;;16.80;99.90;;;;;;5117278;28;20428;-59
2023/08/29 09:56:05;;;;;;;1.65;1.30;;;16.80;99.90;;;;;;5113778;28;20416;-60
2023/08/29 09:58:34;;;;;;;2.40;2.10;;;16.70;99.90;;;;;;5113088;28;20432;-60
2023/08/29 10:01:04;;;;;;;3.10;1.50;;;16.80;99.90;;;;;;5113189;28;20719;-60
2023/08/29 10:03:32;;;;;;;2.80;1.77;;;16.90;99.90;;;;;;5124558;27;20821;-61
2023/08/29 10:06:06;;;;;;;2.08;1.65;;;17.10;99.90;;;;;;5115171;27;20862;-61
2023/08/29 10:08:41;;;;;;;2.30;2.10;;;17.20;99.90;;;;;;5121050;27;20406;-61
2023/08/29 10:11:09;;;;;;;2.20;1.92;;;17.40;99.90;;;;;;5135710;27;20411;-61
2023/08/29 10:13:37;;;;;;;2.70;2.20;;;17.30;99.90;;;;;;5133772;27;20674;-61
2023/08/29 10:16:06;;;;;;;2.65;1.95;;;17.10;99.90;;;;;;5134239;27;20690;-61
2023/08/29 10:18:34;;;;;;;2.80;1.60;;;17.10;99.90;;;;;;5132539;27;20513;-61
2023/08/29 10:21:02;;;;;;;2.73;1.83;;;17.20;99.90;;;;;;5124409;27;20420;-61
2023/08/29 10:23:31;;;;;;;2.33;2.13;;;17.40;99.90;;;;;;5112027;28;20460;-60
2023/08/29 10:26:00;;;;;;;2.13;1.85;;;17.40;99.90;;;;;;5120104;27;20425;-61
2023/08/29 10:28:29;;;;;;;2.75;1.70;;;17.30;99.90;;;;;;5136112;27;20479;-61
2023/08/29 10:31:00;;;;;;;2.78;1.95;;;17.40;99.90;;;;;;5136339;27;20454;-61
2023/08/29 10:33:29;;;;;;;2.10;1.70;;;17.50;99.90;;;;;;5134594;27;20454;-63
2023/08/29 10:35:56;;;;;;;2.40;1.60;;;17.40;99.90;;;;;;5136174;27;20418;-63
2023/08/29 10:38:28;;;;;;;2.07;1.70;;;17.40;96.00;;;;;;5134788;27;20410;-63
2023/08/29 10:41:04;;;;;;;2.60;1.90;;;17.20;99.90;;;;;;5132575;27;20414;-63
2023/08/29 10:43:32;;;;;;;2.70;1.50;;;17.20;99.90;;;;;;5134360;27;20438;-63
2023/08/29 10:46:13;;;;;;;2.00;1.80;;;17.40;99.90;;;;;;5134457;27;20856;-63
2023/08/29 10:48:52;;;;;;;2.53;1.60;;;17.40;99.90;;;;;;5135711;27;20429;-62
2023/08/29 10:51:27;;;;;;;1.80;1.30;;;17.40;99.90;;;;;;5113854;27;20428;-63
2023/08/29 10:53:56;;;;;;;3.33;1.45;;;17.50;99.90;;;;;;5113117;28;20424;-62
2023/08/29 10:56:26;;;;;;;1.60;1.50;;;17.30;99.90;;;;;;5101383;28;20509;-62
2023/08/29 10:58:54;;;;;;;1.77;1.60;;;17.30;99.90;;;;;;5091912;28;20421;-62
2023/08/29 11:01:31;;;;;;;1.60;1.45;;;17.30;99.90;;;;;;5098376;28;20512;-63
2023/08/29 11:04:03;;;;;;;2.60;1.52;;;17.40;99.90;;;;;;5112805;28;20444;-62
2023/08/29 11:06:51;;;;;;;1.70;1.30;;;17.40;99.90;;;;;;5109033;28;20730;-61
2023/08/29 11:09:21;;;;;;;1.90;1.50;;;17.30;99.90;;;;;;5112772;28;20420;-60
2023/08/29 11:12:05;;;;;;;2.47;1.80;;;17.10;99.90;;;;;;5107920;28;20434;-60
2023/08/29 11:14:51;;;;;;;3.22;2.40;;;17.00;99.90;;;;;;5106197;28;20748;-61
2023/08/29 11:17:23;;;;;;;2.88;2.67;;;16.80;99.90;;;;;;5091767;28;20449;-61
2023/08/29 11:19:53;;;;;;;4.70;3.30;;;16.40;99.90;;;;;;5096565;28;20420;-61
2023/08/29 11:22:25;;;;;;;3.22;2.92;;;16.30;99.90;;;;;;5113214;28;20859;-62
2023/08/29 11:24:54;;;;;;;4.13;3.13;;;16.40;99.90;;;;;;5104591;28;20433;-61
2023/08/29 11:27:23;;;;;;;2.80;2.40;;;16.80;99.90;;;;;;5092759;28;20426;-62
2023/08/29 11:29:50;;;;;;;2.85;2.60;;;17.10;99.90;;;;;;5097162;28;20457;-63
2023/08/29 11:32:19;;;;;;;3.28;2.88;;;17.40;99.90;;;;;;5106486;27;20416;-65
2023/08/29 11:34:47;;;;;;;2.15;1.80;;;17.50;99.90;;;;;;5104055;28;20424;-64
2023/08/29 11:37:15;;;;;;;3.30;2.33;;;17.70;99.90;;;;;;5112454;28;20456;-64
2023/08/29 11:39:52;;;;;;;4.22;3.25;;;17.80;99.90;;;;;;5114706;28;20425;-65
2023/08/29 11:42:21;;;;;;;2.50;2.30;;;18.00;99.90;;;;;;5112499;28;20431;-65
2023/08/29 11:44:48;;;;;;;3.60;2.43;;;18.20;99.90;;;;;;5112280;28;20435;-64
2023/08/29 11:47:16;;;;;;;2.27;2.00;;;18.30;99.90;;;;;;5136813;27;20408;-66
2023/08/29 11:49:43;;;;;;;2.50;2.25;;;18.40;82.20;;;;;;5155291;27;20421;-66
2023/08/29 11:52:10;;;;;;;2.70;2.50;;;18.40;69.30;;;;;;5155626;27;20841;-65
2023/08/29 11:54:41;;;;;;;3.70;2.60;;;18.30;90.70;;;;;;5154951;27;20419;-66
2023/08/29 11:57:10;;;;;;;2.85;2.55;;;18.00;95.00;;;;;;5153635;27;20520;-64
2023/08/29 11:59:40;;;;;;;2.83;2.13;;;17.80;93.60;;;;;;5153646;27;20426;-65
2023/08/29 12:02:09;;;;;;;3.42;2.42;;;17.70;99.90;;;;;;5153960;27;20452;-66
2023/08/29 12:04:41;;;;;;;3.45;3.15;;;17.70;99.90;;;;;;5153462;27;20847;-64
2023/08/29 12:07:12;;;;;;;2.97;2.60;;;17.50;99.90;;;;;;5151010;27;20409;-65
2023/08/29 12:09:42;;;;;;;3.15;2.72;;;17.30;99.90;;;;;;5150034;27;20519;-63
2023/08/29 12:12:10;;;;;;;3.33;2.50;;;17.40;99.90;;;;;;5152358;27;20420;-64
2023/08/29 12:14:50;;;;;;;2.45;2.25;;;17.40;99.90;;;;;;5153893;27;20409;-64
2023/08/29 12:17:17;;;;;;;2.65;2.40;;;17.50;99.90;;;;;;5131786;27;20414;-63
2023/08/29 12:19:44;;;;;;;2.92;2.50;;;17.40;99.90;;;;;;5131352;27;20550;-63
2023/08/29 12:22:12;;;;;;;2.90;2.70;;;17.50;99.90;;;;;;5116902;27;20859;-63
2023/08/29 12:24:40;;;;;;;3.20;2.60;;;17.30;99.90;;;;;;5107337;28;20419;-62
2023/08/29 12:27:07;;;;;;;3.55;2.60;;;17.30;99.90;;;;;;5119180;27;20657;-62
2023/08/29 12:29:34;;;;;;;2.80;2.30;;;17.30;99.90;;;;;;5128614;27;20406;-61
2023/08/29 12:32:01;;;;;;;2.70;2.33;;;17.30;99.90;;;;;;5125221;27;20430;-62
2023/08/29 12:34:29;;;;;;;2.35;2.15;;;17.30;99.90;;;;;;5147766;27;20426;-62
2023/08/29 12:36:56;;;;;;;2.17;1.98;;;17.30;99.90;;;;;;5107423;27;20467;-62
2023/08/29 12:39:23;;;;;;;2.55;2.30;;;17.30;99.90;;;;;;5121175;27;20426;-63
2023/08/29 12:41:51;;;;;;;3.40;3.10;;;17.30;99.90;;;;;;5108846;27;20507;-62
2023/08/29 12:44:19;;;;;;;2.35;2.15;;;17.30;99.90;;;;;;5111925;28;20432;-63
2023/08/29 12:46:46;;;;;;;3.03;2.83;;;17.30;99.90;;;;;;5110940;28;20874;-62
2023/08/29 12:49:13;;;;;;;3.60;3.30;;;17.30;99.90;;;;;;5112213;28;20421;-63
2023/08/29 12:51:40;;;;;;;4.10;3.63;;;17.30;99.90;;;;;;5127818;28;20897;-64
2023/08/29 12:54:07;;;;;;;3.45;3.08;;;17.40;99.90;;;;;;5131678;28;20421;-65
2023/08/29 12:56:34;;;;;;;4.30;3.90;;;17.30;99.90;;;;;;5115074;28;20765;-67